Weather at Zürich Airport

Public forecast

Using degrees Celsius for public forecast. Weather courtesy of forecast.io.

Current aviation weather report (METAR) for Zürich Airport

Retrieved 2020/10/23 23:20 UTC (28 minutes ago):

LSZH 232320Z VRB02KT 9999 VCSH FEW036 BKN040 12/11 Q1018 TEMPO SHRA

Aviation forecast (TAF) for Zürich Airport

Retrieved 2020/10/23 21:38 UTC (2 hours ago):

TAF LSZH 232025Z 2321/2503 17004KT 9000 -RA FEW009 SCT013 BKN065 TX15/2414Z TN10/2405Z PROB30 TEMPO 2402/2408 4000 SHRA BKN012 BECMG 2413/2417 CAVOK BECMG 2423/2502 3000 MIFG NSC